Time;durP1;ratioP1;P1;durP2;ratioP2;P2;SDS_P1;SDS_P2;PMS_P1;PMS_P2;Temp;Humidity;BMP_temperature;BMP_pressure;BME280_temperature;BME280_humidity;BME280_pressure;Samples;Min_cycle;Max_cycle;Signal;HPM_P1;HPM_P2
2021/05/12 00:01:22;;;;;;;39.38;24.80;;;;;;;;;;5048519;28;20035;-65
2021/05/12 00:03:48;;;;;;;40.63;24.90;;;;;;;;;;5047428;28;20086;-64
2021/05/12 00:06:14;;;;;;;45.53;28.77;;;;;;;;;;5048516;28;20500;-64
2021/05/12 00:08:40;;;;;;;46.85;29.63;;;;;;;;;;5049081;28;20033;-63
2021/05/12 00:11:06;;;;;;;44.72;27.80;;;;;;;;;;5050251;28;20017;-65
2021/05/12 00:13:32;;;;;;;45.30;26.40;;;;;;;;;;5048790;28;20508;-64
2021/05/12 00:15:58;;;;;;;45.67;30.05;;;;;;;;;;5050160;28;20033;-65
2021/05/12 00:18:27;;;;;;;46.92;29.15;;;;;;;;;;5050092;28;20028;-64
2021/05/12 00:20:53;;;;;;;;;;;;;;;;;;5050045;28;20112;-64
2021/05/12 00:23:26;;;;;;;46.92;29.63;;;;;;;;;;5048883;28;20487;-65
2021/05/12 00:25:52;;;;;;;52.72;32.45;;;;;;;;;;5049742;28;20018;-64
2021/05/12 00:28:18;;;;;;;49.85;31.50;;;;;;;;;;5048636;28;20028;-64
2021/05/12 00:30:44;;;;;;;49.35;32.00;;;;;;;;;;5048088;28;20028;-65
2021/05/12 00:33:12;;;;;;;50.35;29.80;;;;;;;;;;5050073;28;20029;-64
2021/05/12 00:35:37;;;;;;;50.77;34.00;;;;;;;;;;5050074;28;20076;-64
2021/05/12 00:38:03;;;;;;;58.13;34.63;;;;;;;;;;5049876;28;20192;-64
2021/05/12 00:40:29;;;;;;;50.92;32.28;;;;;;;;;;5047841;28;20024;-64
2021/05/12 00:42:55;;;;;;;53.85;35.15;;;;;;;;;;5051641;28;20033;-64
2021/05/12 00:45:22;;;;;;;48.25;30.10;;;;;;;;;;5053841;28;20083;-64
2021/05/12 00:47:48;;;;;;;54.78;35.70;;;;;;;;;;5053868;28;20025;-63
2021/05/12 00:50:15;;;;;;;52.88;32.00;;;;;;;;;;5053039;28;20017;-65
2021/05/12 00:52:41;;;;;;;50.40;32.53;;;;;;;;;;5053635;28;20044;-65
2021/05/12 00:55:07;;;;;;;54.35;31.48;;;;;;;;;;5053498;28;20032;-64
2021/05/12 00:57:34;;;;;;;47.97;31.25;;;;;;;;;;5054975;28;20029;-65
2021/05/12 01:00:00;;;;;;;50.90;32.08;;;;;;;;;;5053895;28;20092;-64
2021/05/12 01:02:26;;;;;;;46.80;28.48;;;;;;;;;;5052910;28;20029;-62
2021/05/12 01:04:52;;;;;;;48.47;33.08;;;;;;;;;;5053763;28;20021;-64
2021/05/12 01:07:18;;;;;;;46.97;29.20;;;;;;;;;;5052077;28;20029;-64
2021/05/12 01:09:44;;;;;;;48.25;31.27;;;;;;;;;;5052505;28;20474;-64
2021/05/12 01:12:10;;;;;;;47.53;31.70;;;;;;;;;;5052961;28;20025;-65
2021/05/12 01:14:36;;;;;;;50.05;31.52;;;;;;;;;;5052977;28;20069;-65
2021/05/12 01:17:02;;;;;;;50.72;32.10;;;;;;;;;;5068307;22;20095;-59
2021/05/12 01:19:28;;;;;;;50.00;31.67;;;;;;;;;;5053198;28;20083;-60
2021/05/12 01:21:56;;;;;;;49.03;31.50;;;;;;;;;;5053986;28;20074;-60
2021/05/12 01:24:22;;;;;;;48.05;29.90;;;;;;;;;;5053922;28;20060;-59
2021/05/12 01:26:48;;;;;;;44.88;30.05;;;;;;;;;;5053985;28;20044;-60
2021/05/12 01:29:14;;;;;;;48.65;32.85;;;;;;;;;;5053201;28;20057;-61
2021/05/12 01:31:41;;;;;;;47.67;31.92;;;;;;;;;;5053916;28;20472;-60
2021/05/12 01:34:11;;;;;;;48.67;32.58;;;;;;;;;;5052706;28;20017;-59
2021/05/12 01:36:37;;;;;;;48.97;31.42;;;;;;;;;;5054040;28;20021;-60
2021/05/12 01:39:05;;;;;;;47.88;31.83;;;;;;;;;;5053189;28;20033;-60
2021/05/12 01:41:31;;;;;;;50.50;33.75;;;;;;;;;;5053841;28;20048;-60
2021/05/12 01:43:57;;;;;;;48.92;31.83;;;;;;;;;;5052753;28;20374;-60
2021/05/12 01:46:23;;;;;;;49.42;32.20;;;;;;;;;;5053805;28;20107;-60
2021/05/12 01:48:49;;;;;;;47.28;31.10;;;;;;;;;;5053217;28;20021;-60
2021/05/12 01:51:16;;;;;;;53.08;32.13;;;;;;;;;;5053715;28;20021;-60
2021/05/12 01:53:42;;;;;;;48.67;32.55;;;;;;;;;;5052074;28;20497;-59
2021/05/12 01:56:09;;;;;;;47.95;32.13;;;;;;;;;;5053336;28;20032;-60
2021/05/12 01:58:35;;;;;;;50.80;30.85;;;;;;;;;;5053177;28;20021;-60
2021/05/12 02:01:01;;;;;;;54.17;34.35;;;;;;;;;;5052706;28;20029;-60
2021/05/12 02:03:27;;;;;;;52.53;33.00;;;;;;;;;;5051960;28;20025;-60
2021/05/12 02:05:54;;;;;;;49.83;32.28;;;;;;;;;;5053266;28;20075;-60
2021/05/12 02:08:21;;;;;;;52.95;35.72;;;;;;;;;;5051700;28;20020;-60
2021/05/12 02:10:48;;;;;;;50.38;31.98;;;;;;;;;;5052413;28;20025;-60
2021/05/12 02:13:14;;;;;;;50.97;32.38;;;;;;;;;;5051837;28;20071;-60
2021/05/12 02:15:41;;;;;;;52.95;33.00;;;;;;;;;;5053240;28;20031;-60
2021/05/12 02:18:07;;;;;;;57.85;34.25;;;;;;;;;;5051492;28;20105;-60
2021/05/12 02:20:34;;;;;;;52.20;36.28;;;;;;;;;;5052301;28;20017;-60
2021/05/12 02:23:05;;;;;;;55.35;33.78;;;;;;;;;;5052760;28;20029;-60
2021/05/12 02:25:31;;;;;;;51.85;33.05;;;;;;;;;;5052974;28;20108;-58
2021/05/12 02:27:57;;;;;;;50.47;34.55;;;;;;;;;;5052815;28;20021;-60
2021/05/12 02:30:24;;;;;;;51.45;33.80;;;;;;;;;;5050895;28;20488;-60
2021/05/12 02:32:50;;;;;;;51.00;34.53;;;;;;;;;;5052602;28;20036;-59
2021/05/12 02:35:20;;;;;;;49.28;31.00;;;;;;;;;;5051356;28;20033;-60
2021/05/12 02:37:46;;;;;;;52.17;31.48;;;;;;;;;;5052750;28;20044;-60
2021/05/12 02:40:14;;;;;;;51.13;33.97;;;;;;;;;;5052350;28;20021;-60
2021/05/12 02:42:40;;;;;;;52.15;33.78;;;;;;;;;;5052889;28;20025;-60
2021/05/12 02:45:07;;;;;;;52.15;33.35;;;;;;;;;;5052685;28;20040;-59
2021/05/12 02:47:34;;;;;;;48.05;31.25;;;;;;;;;;5052679;28;20025;-60
2021/05/12 02:50:00;;;;;;;54.72;35.25;;;;;;;;;;5052125;28;20025;-59
2021/05/12 02:52:26;;;;;;;48.67;33.00;;;;;;;;;;5053057;28;20037;-58
2021/05/12 02:54:52;;;;;;;49.30;32.92;;;;;;;;;;5052814;28;20390;-60
2021/05/12 02:57:19;;;;;;;51.75;31.33;;;;;;;;;;5051118;28;20021;-60
2021/05/12 02:59:45;;;;;;;48.97;32.58;;;;;;;;;;5050523;28;20029;-60
2021/05/12 03:02:11;;;;;;;50.78;33.78;;;;;;;;;;5052419;28;20366;-60
2021/05/12 03:04:37;;;;;;;55.60;35.72;;;;;;;;;;5050782;28;20393;-58
2021/05/12 03:07:03;;;;;;;52.03;34.50;;;;;;;;;;5051175;28;20025;-60
2021/05/12 03:09:29;;;;;;;54.22;34.80;;;;;;;;;;5051801;28;20074;-60
2021/05/12 03:11:55;;;;;;;56.03;35.38;;;;;;;;;;5052278;28;20021;-59
2021/05/12 03:14:22;;;;;;;48.88;35.30;;;;;;;;;;5051054;28;20116;-60
2021/05/12 03:16:49;;;;;;;51.58;35.53;;;;;;;;;;5051799;28;20517;-57
2021/05/12 03:19:15;;;;;;;53.15;35.83;;;;;;;;;;5050236;28;20064;-59
2021/05/12 03:21:41;;;;;;;50.90;34.63;;;;;;;;;;5052079;28;20025;-59
2021/05/12 03:24:08;;;;;;;52.55;34.53;;;;;;;;;;5052101;28;20036;-60
2021/05/12 03:26:34;;;;;;;56.05;36.80;;;;;;;;;;5050800;28;20025;-59
2021/05/12 03:29:00;;;;;;;58.10;38.65;;;;;;;;;;5051283;28;20487;-61
2021/05/12 03:31:26;;;;;;;53.78;38.83;;;;;;;;;;5052017;28;20419;-61
2021/05/12 03:33:55;;;;;;;59.92;39.03;;;;;;;;;;5051825;28;20017;-60
2021/05/12 03:36:21;;;;;;;;;;;;;;;;;;5052446;28;20025;-60
2021/05/12 03:38:47;;;;;;;56.95;38.90;;;;;;;;;;5051042;28;20325;-60
2021/05/12 03:41:13;;;;;;;60.03;40.47;;;;;;;;;;5050394;28;20134;-60
2021/05/12 03:43:39;;;;;;;64.07;42.05;;;;;;;;;;5051710;28;20033;-60
2021/05/12 03:46:05;;;;;;;58.15;40.40;;;;;;;;;;5050374;28;20466;-60
2021/05/12 03:48:31;;;;;;;62.60;41.53;;;;;;;;;;5050190;28;20078;-60
2021/05/12 03:50:57;;;;;;;58.03;39.90;;;;;;;;;;5051341;28;20017;-60
2021/05/12 03:53:23;;;;;;;55.42;39.60;;;;;;;;;;5050404;28;20035;-60
2021/05/12 03:55:49;;;;;;;57.33;40.20;;;;;;;;;;5051603;28;20032;-62
2021/05/12 03:58:15;;;;;;;61.70;40.92;;;;;;;;;;5050502;28;20111;-59
2021/05/12 04:00:41;;;;;;;60.83;41.47;;;;;;;;;;5050166;28;20396;-60
2021/05/12 04:03:07;;;;;;;64.13;42.42;;;;;;;;;;5051991;28;20025;-60
2021/05/12 04:05:33;;;;;;;59.50;40.28;;;;;;;;;;5051773;28;20032;-60
2021/05/12 04:08:00;;;;;;;56.70;39.33;;;;;;;;;;5051905;28;20021;-60
2021/05/12 04:10:27;;;;;;;58.97;38.33;;;;;;;;;;5051751;28;20017;-61
2021/05/12 04:12:52;;;;;;;53.22;37.10;;;;;;;;;;5050364;28;20112;-60
2021/05/12 04:15:19;;;;;;;58.58;40.85;;;;;;;;;;5051961;28;20563;-60
2021/05/12 04:17:45;;;;;;;54.38;39.17;;;;;;;;;;5054979;28;20072;-62
2021/05/12 04:20:13;;;;;;;58.95;39.35;;;;;;;;;;5054919;28;20067;-60
2021/05/12 04:22:40;;;;;;;59.70;40.33;;;;;;;;;;5055431;28;20029;-59
2021/05/12 04:25:07;;;;;;;56.47;37.45;;;;;;;;;;5054076;28;20116;-62
2021/05/12 04:27:33;;;;;;;59.45;39.92;;;;;;;;;;5055624;28;20079;-60
2021/05/12 04:29:59;;;;;;;58.58;39.03;;;;;;;;;;5053320;28;20044;-60
2021/05/12 04:32:25;;;;;;;60.25;39.25;;;;;;;;;;5055787;28;20055;-59
2021/05/12 04:34:51;;;;;;;55.00;37.70;;;;;;;;;;5055791;28;20401;-60
2021/05/12 04:37:17;;;;;;;58.67;39.05;;;;;;;;;;5053962;28;20041;-60
2021/05/12 04:39:43;;;;;;;59.70;39.00;;;;;;;;;;5054549;28;20029;-59
2021/05/12 04:42:10;;;;;;;58.97;40.28;;;;;;;;;;5053780;28;20072;-60
2021/05/12 04:44:36;;;;;;;57.88;37.53;;;;;;;;;;5053645;28;20116;-60
2021/05/12 04:47:02;;;;;;;56.17;38.95;;;;;;;;;;5053704;28;20467;-60
2021/05/12 04:49:28;;;;;;;57.35;37.65;;;;;;;;;;5054672;28;20017;-60
2021/05/12 04:51:54;;;;;;;59.60;39.92;;;;;;;;;;5054165;28;20104;-61
2021/05/12 04:54:20;;;;;;;57.30;36.22;;;;;;;;;;5053720;28;20083;-60
2021/05/12 04:56:46;;;;;;;57.15;38.00;;;;;;;;;;5053591;28;20448;-60
2021/05/12 04:59:12;;;;;;;56.15;37.60;;;;;;;;;;5054052;28;20055;-60
2021/05/12 05:01:38;;;;;;;57.38;39.60;;;;;;;;;;5054574;28;20021;-60
2021/05/12 05:04:04;;;;;;;57.45;38.53;;;;;;;;;;5054353;28;20111;-60
2021/05/12 05:06:33;;;;;;;54.58;34.15;;;;;;;;;;5053196;28;20387;-60
2021/05/12 05:08:59;;;;;;;;;;;;;;;;;;5054110;28;20476;-60
2021/05/12 05:11:25;;;;;;;52.10;34.17;;;;;;;;;;5054118;28;19915;-59
2021/05/12 05:13:51;;;;;;;53.78;33.92;;;;;;;;;;5052537;28;20036;-60
2021/05/12 05:16:17;;;;;;;50.58;35.20;;;;;;;;;;5052300;28;20025;-59
2021/05/12 05:18:45;;;;;;;47.45;32.38;;;;;;;;;;5053716;28;20040;-60
2021/05/12 05:21:11;;;;;;;50.88;33.42;;;;;;;;;;5054232;28;20473;-60
2021/05/12 05:23:38;;;;;;;51.40;32.72;;;;;;;;;;5052579;28;20031;-60
2021/05/12 05:26:04;;;;;;;49.03;32.60;;;;;;;;;;5054185;28;20051;-60
2021/05/12 05:28:31;;;;;;;48.20;33.10;;;;;;;;;;5053680;28;20052;-60
2021/05/12 05:30:57;;;;;;;48.15;32.83;;;;;;;;;;5053551;28;20025;-59
2021/05/12 05:33:23;;;;;;;48.05;32.63;;;;;;;;;;5052665;28;20088;-62
2021/05/12 05:35:49;;;;;;;47.88;33.75;;;;;;;;;;5052553;28;20029;-61
2021/05/12 05:38:15;;;;;;;45.22;30.83;;;;;;;;;;5053426;28;20465;-62
2021/05/12 05:40:41;;;;;;;47.55;32.67;;;;;;;;;;5052723;28;20033;-61
2021/05/12 05:43:08;;;;;;;47.20;32.80;;;;;;;;;;5053602;28;20833;-60
2021/05/12 05:45:34;;;;;;;46.95;31.23;;;;;;;;;;5053474;28;20405;-61
2021/05/12 05:48:00;;;;;;;46.72;32.88;;;;;;;;;;5051838;28;20021;-56
2021/05/12 05:50:26;;;;;;;43.25;31.25;;;;;;;;;;5051249;28;20033;-61
2021/05/12 05:52:56;;;;;;;46.38;30.30;;;;;;;;;;5052342;28;20097;-60
2021/05/12 05:55:22;;;;;;;43.10;29.52;;;;;;;;;;5051847;28;20029;-62
2021/05/12 05:57:50;;;;;;;42.30;28.85;;;;;;;;;;5053193;28;20024;-61
2021/05/12 06:00:16;;;;;;;40.03;28.85;;;;;;;;;;5051693;28;20068;-61
2021/05/12 06:02:42;;;;;;;43.58;26.35;;;;;;;;;;5052911;28;20025;-61
2021/05/12 06:05:08;;;;;;;42.65;27.63;;;;;;;;;;5053586;28;20155;-61
2021/05/12 06:07:34;;;;;;;38.70;24.65;;;;;;;;;;5051887;28;20039;-59
2021/05/12 06:10:00;;;;;;;37.95;24.80;;;;;;;;;;5052814;28;20028;-69
2021/05/12 06:12:26;;;;;;;37.33;23.73;;;;;;;;;;5053527;28;20029;-62
2021/05/12 06:14:52;;;;;;;38.70;23.40;;;;;;;;;;5053594;28;20060;-61
2021/05/12 06:17:18;;;;;;;38.72;23.05;;;;;;;;;;5052770;28;20056;-61
2021/05/12 06:19:44;;;;;;;37.40;23.90;;;;;;;;;;5050627;28;20029;-61
2021/05/12 06:22:10;;;;;;;35.83;21.55;;;;;;;;;;5051259;28;20036;-60
2021/05/12 06:24:38;;;;;;;37.10;24.00;;;;;;;;;;5052859;28;20108;-59
2021/05/12 06:27:05;;;;;;;35.17;21.55;;;;;;;;;;5052297;28;20028;-59
2021/05/12 06:29:31;;;;;;;32.78;21.10;;;;;;;;;;5051008;28;20123;-61
2021/05/12 06:31:57;;;;;;;33.28;21.83;;;;;;;;;;5052620;28;20071;-61
2021/05/12 06:34:23;;;;;;;32.90;21.45;;;;;;;;;;5052926;28;20049;-59
2021/05/12 06:36:49;;;;;;;32.70;22.98;;;;;;;;;;5052652;28;20079;-61
2021/05/12 06:39:15;;;;;;;33.25;22.27;;;;;;;;;;5050850;28;20031;-61
2021/05/12 06:41:41;;;;;;;34.17;21.70;;;;;;;;;;5051986;28;20473;-59
2021/05/12 06:44:07;;;;;;;34.97;21.27;;;;;;;;;;5053036;28;20025;-61
2021/05/12 06:46:33;;;;;;;32.13;19.25;;;;;;;;;;5052366;28;20611;-62
2021/05/12 06:48:59;;;;;;;36.33;21.83;;;;;;;;;;5051946;28;20032;-59
2021/05/12 06:51:25;;;;;;;29.80;19.80;;;;;;;;;;5052344;28;20025;-59
2021/05/12 06:53:51;;;;;;;33.38;21.52;;;;;;;;;;5051092;28;20453;-61
2021/05/12 06:56:17;;;;;;;31.80;21.02;;;;;;;;;;5052372;28;20032;-61
2021/05/12 06:58:43;;;;;;;33.78;20.38;;;;;;;;;;5052085;28;20025;-61
2021/05/12 07:01:12;;;;;;;35.55;20.98;;;;;;;;;;5044919;28;20029;-61
2021/05/12 07:03:38;;;;;;;31.85;20.00;;;;;;;;;;5046491;28;20196;-60
2021/05/12 07:06:04;;;;;;;28.73;16.70;;;;;;;;;;5051979;28;20017;-61
2021/05/12 07:08:33;;;;;;;27.25;16.23;;;;;;;;;;5050582;28;20021;-62
2021/05/12 07:10:59;;;;;;;25.83;16.90;;;;;;;;;;5031570;28;20389;-59
2021/05/12 07:13:34;;;;;;;27.95;15.88;;;;;;;;;;5031409;28;20030;-61
2021/05/12 07:16:01;;;;;;;27.15;13.68;;;;;;;;;;5032091;28;20026;-61
2021/05/12 07:18:28;;;;;;;26.60;13.15;;;;;;;;;;5046305;28;20091;-61
2021/05/12 07:20:54;;;;;;;25.17;14.18;;;;;;;;;;5052093;28;20458;-59
2021/05/12 07:23:22;;;;;;;21.85;11.98;;;;;;;;;;5052126;28;20443;-57
2021/05/12 07:25:48;;;;;;;20.80;11.52;;;;;;;;;;5052150;28;20025;-59
2021/05/12 07:28:15;;;;;;;21.83;12.00;;;;;;;;;;5048203;28;20055;-59
2021/05/12 07:30:42;;;;;;;22.00;12.52;;;;;;;;;;5041124;28;20017;-60
2021/05/12 07:33:08;;;;;;;23.70;13.20;;;;;;;;;;5046224;28;20436;-60
2021/05/12 07:35:34;;;;;;;24.08;13.48;;;;;;;;;;5042469;28;20026;-60
2021/05/12 07:38:00;;;;;;;23.13;12.32;;;;;;;;;;5042439;28;20055;-60
2021/05/12 07:40:31;;;;;;;21.77;12.13;;;;;;;;;;5050591;28;20029;-61
2021/05/12 07:42:58;;;;;;;25.35;11.50;;;;;;;;;;5050313;28;20507;-56
2021/05/12 07:45:25;;;;;;;24.63;11.23;;;;;;;;;;5051452;28;20044;-58
2021/05/12 07:47:50;;;;;;;20.52;10.35;;;;;;;;;;5050941;28;20036;-60
2021/05/12 07:50:16;;;;;;;20.13;10.32;;;;;;;;;;5050696;28;20025;-57
2021/05/12 07:52:42;;;;;;;23.60;11.25;;;;;;;;;;5051654;28;20397;-58
2021/05/12 07:55:09;;;;;;;21.80;11.05;;;;;;;;;;5051240;28;20025;-61
2021/05/12 07:57:35;;;;;;;25.83;11.30;;;;;;;;;;5051380;28;20542;-56
2021/05/12 08:00:03;;;;;;;20.00;10.40;;;;;;;;;;5050882;28;20033;-59
2021/05/12 08:02:29;;;;;;;22.05;10.52;;;;;;;;;;5049886;28;20407;-55
2021/05/12 08:04:55;;;;;;;21.98;10.68;;;;;;;;;;5050205;28;20083;-58
2021/05/12 08:07:22;;;;;;;19.48;9.75;;;;;;;;;;5051104;28;20040;-59
2021/05/12 08:09:48;;;;;;;20.08;9.90;;;;;;;;;;5049863;28;20091;-58
2021/05/12 08:12:14;;;;;;;21.13;9.80;;;;;;;;;;5051639;28;20025;-57
2021/05/12 08:14:40;;;;;;;22.08;10.25;;;;;;;;;;5045400;28;20026;-56
2021/05/12 08:17:06;;;;;;;21.15;10.48;;;;;;;;;;5031319;28;20052;-57
2021/05/12 08:19:32;;;;;;;22.80;9.35;;;;;;;;;;5030928;28;20063;-59
2021/05/12 08:22:02;;;;;;;22.70;9.75;;;;;;;;;;5031096;28;20025;-57
2021/05/12 08:24:28;;;;;;;20.08;9.45;;;;;;;;;;5031127;28;20025;-58
2021/05/12 08:26:54;;;;;;;19.58;9.68;;;;;;;;;;5029939;28;20528;-59
2021/05/12 08:29:20;;;;;;;22.08;10.23;;;;;;;;;;5030473;28;20033;-58
2021/05/12 08:31:46;;;;;;;21.48;9.40;;;;;;;;;;5031202;28;20029;-59
2021/05/12 08:34:12;;;;;;;20.52;9.75;;;;;;;;;;5031243;28;20018;-60
2021/05/12 08:36:39;;;;;;;20.85;9.50;;;;;;;;;;5044827;28;20021;-56
2021/05/12 08:39:10;;;;;;;19.65;9.52;;;;;;;;;;5049084;28;20036;-60
2021/05/12 08:41:37;;;;;;;22.35;10.75;;;;;;;;;;5051354;28;20021;-61
2021/05/12 08:44:05;;;;;;;22.50;9.43;;;;;;;;;;5033856;28;20120;-55
2021/05/12 08:46:31;;;;;;;21.58;10.50;;;;;;;;;;5031428;28;20099;-56
2021/05/12 08:48:58;;;;;;;21.42;10.90;;;;;;;;;;5029402;28;20029;-54
2021/05/12 08:51:26;;;;;;;22.77;10.48;;;;;;;;;;5029724;28;20434;-54
2021/05/12 08:53:52;;;;;;;23.85;12.00;;;;;;;;;;5031136;28;20105;-57
2021/05/12 08:56:18;;;;;;;21.40;10.45;;;;;;;;;;5029668;28;20036;-58
2021/05/12 08:58:44;;;;;;;22.58;11.55;;;;;;;;;;5030398;28;20481;-54
2021/05/12 09:01:10;;;;;;;20.70;10.93;;;;;;;;;;5031066;28;20030;-57
2021/05/12 09:03:36;;;;;;;21.10;10.73;;;;;;;;;;5050452;28;20473;-56
2021/05/12 09:06:02;;;;;;;25.27;10.70;;;;;;;;;;5052999;28;20469;-58
2021/05/12 09:08:28;;;;;;;23.08;10.82;;;;;;;;;;5053946;28;20072;-54
2021/05/12 09:10:55;;;;;;;23.33;10.65;;;;;;;;;;5053414;28;20116;-57
2021/05/12 09:13:33;;;;;;;20.02;10.80;;;;;;;;;;5054062;28;20504;-52
2021/05/12 09:16:19;;;;;;;24.50;11.77;;;;;;;;;;5052849;28;20021;-55
2021/05/12 09:18:45;;;;;;;21.80;11.15;;;;;;;;;;5039727;28;20049;-58
2021/05/12 09:21:12;;;;;;;22.52;10.30;;;;;;;;;;5054314;28;20025;-56
2021/05/12 09:23:39;;;;;;;20.70;10.77;;;;;;;;;;5054063;28;20081;-54
2021/05/12 09:26:11;;;;;;;23.90;11.45;;;;;;;;;;5053587;28;20083;-54
2021/05/12 09:28:37;;;;;;;25.65;11.93;;;;;;;;;;5043443;28;20017;-52
2021/05/12 09:31:04;;;;;;;21.35;9.80;;;;;;;;;;5048058;28;20108;-58
2021/05/12 09:33:31;;;;;;;20.13;10.10;;;;;;;;;;5046961;28;20486;-56
2021/05/12 09:35:58;;;;;;;19.75;9.77;;;;;;;;;;5038166;28;20268;-53
2021/05/12 09:38:25;;;;;;;20.20;11.63;;;;;;;;;;5032518;28;20029;-54
2021/05/12 09:41:05;;;;;;;19.80;9.15;;;;;;;;;;5032008;28;20443;-55
2021/05/12 09:43:32;;;;;;;20.42;9.57;;;;;;;;;;5034845;28;20033;-59
2021/05/12 09:46:16;;;;;;;19.20;9.25;;;;;;;;;;5053639;28;20446;-54
2021/05/12 09:49:00;;;;;;;20.90;9.70;;;;;;;;;;5052606;28;20031;-56
2021/05/12 09:51:28;;;;;;;17.25;9.05;;;;;;;;;;5053618;28;20025;-59
2021/05/12 09:54:03;;;;;;;22.05;10.55;;;;;;;;;;5053334;28;20037;-59
2021/05/12 09:56:36;;;;;;;18.80;9.27;;;;;;;;;;5053893;28;20029;-61
2021/05/12 09:59:08;;;;;;;20.00;9.57;;;;;;;;;;5052573;28;20083;-62
2021/05/12 10:01:40;;;;;;;20.98;10.70;;;;;;;;;;5052218;28;20025;-58
2021/05/12 10:04:24;;;;;;;24.88;10.30;;;;;;;;;;5031126;28;20044;-60
2021/05/12 10:06:51;;;;;;;19.33;10.70;;;;;;;;;;5033296;28;20497;-61
2021/05/12 10:09:21;;;;;;;20.75;10.52;;;;;;;;;;5032922;28;20033;-61
2021/05/12 10:12:02;;;;;;;19.48;10.43;;;;;;;;;;5034034;28;20503;-61
2021/05/12 10:14:29;;;;;;;19.77;10.73;;;;;;;;;;5032213;28;20052;-60
2021/05/12 10:16:55;;;;;;;22.20;10.13;;;;;;;;;;5030622;28;20029;-61
2021/05/12 10:19:22;;;;;;;19.50;9.85;;;;;;;;;;5032570;28;20036;-62
2021/05/12 10:21:48;;;;;;;19.67;10.05;;;;;;;;;;5033057;28;20033;-61
2021/05/12 10:24:14;;;;;;;21.33;10.35;;;;;;;;;;5033650;28;20084;-62
2021/05/12 10:26:42;;;;;;;20.63;10.07;;;;;;;;;;5033130;28;20045;-60
2021/05/12 10:29:08;;;;;;;20.27;10.27;;;;;;;;;;5031253;28;20025;-59
2021/05/12 10:31:34;;;;;;;18.95;10.43;;;;;;;;;;5033065;28;20043;-60
2021/05/12 10:34:01;;;;;;;20.17;10.85;;;;;;;;;;5033126;28;20107;-61
2021/05/12 10:36:27;;;;;;;21.90;11.38;;;;;;;;;;5032845;28;20025;-61
2021/05/12 10:38:55;;;;;;;19.65;11.40;;;;;;;;;;5032205;28;20037;-60
2021/05/12 10:41:41;;;;;;;20.42;11.82;;;;;;;;;;5032913;28;20124;-63
2021/05/12 10:44:17;;;;;;;21.45;11.63;;;;;;;;;;5032761;28;20366;-60
2021/05/12 10:46:50;;;;;;;21.15;12.10;;;;;;;;;;5032502;28;20029;-59
2021/05/12 10:49:23;;;;;;;19.70;12.88;;;;;;;;;;5031986;28;20022;-61
2021/05/12 10:51:51;;;;;;;24.20;13.27;;;;;;;;;;5032730;28;20053;-61
2021/05/12 10:54:36;;;;;;;21.25;12.57;;;;;;;;;;5032315;28;20022;-61
2021/05/12 10:57:02;;;;;;;20.33;11.82;;;;;;;;;;5031316;28;20493;-62
2021/05/12 10:59:28;;;;;;;21.80;11.77;;;;;;;;;;5031950;28;20075;-63
2021/05/12 11:01:55;;;;;;;21.48;13.23;;;;;;;;;;5034154;28;20071;-63
2021/05/12 11:04:22;;;;;;;19.40;11.45;;;;;;;;;;5052445;28;20083;-60
2021/05/12 11:06:51;;;;;;;18.73;11.05;;;21.20;99.90;;;;;;5052262;28;20029;-61
2021/05/12 11:09:18;;;;;;;19.83;12.85;;;;;;;;;;5051637;28;20418;-63
2021/05/12 11:11:44;;;;;;;17.60;11.48;;;;;;;;;;5050331;28;20049;-62
2021/05/12 11:14:19;;;;;;;18.45;11.90;;;;;;;;;;5052359;28;20121;-62
2021/05/12 11:17:04;;;;;;;17.75;11.35;;;;;;;;;;5052278;28;20507;-63
2021/05/12 11:19:43;;;;;;;17.73;11.50;;;;;;;;;;5051490;28;20025;-66
2021/05/12 11:24:57;;;;;;;18.08;12.80;;;;;;;;;;5052539;28;20524;-62
2021/05/12 11:32:34;;;;;;;18.65;11.55;;;;;;;;;;5051858;28;20052;-62
2021/05/12 11:35:01;;;;;;;18.05;11.50;;;;;;;;;;5051685;28;20032;-61
2021/05/12 11:37:27;;;;;;;19.90;12.95;;;;;;;;;;5052357;28;20083;-62
2021/05/12 11:39:55;;;;;;;19.70;12.10;;;;;;;;;;5049478;28;20098;-63
2021/05/12 11:42:21;;;;;;;19.73;12.23;;;;;;;;;;5051416;28;20029;-63
2021/05/12 11:44:48;;;;;;;21.77;12.05;;;;;;;;;;5051695;28;20029;-63
2021/05/12 11:47:28;;;;;;;20.63;12.57;;;;;;;;;;5051592;28;20071;-62
2021/05/12 11:49:54;;;;;;;19.40;12.73;;;;;;;;;;5050786;28;20021;-62
2021/05/12 11:52:30;;;;;;;19.48;11.90;;;;;;;;;;5051973;28;20029;-62
2021/05/12 11:55:07;;;;;;;19.85;11.15;;;;;;;;;;5051483;28;20029;-63
2021/05/12 11:57:33;;;;;;;17.58;11.52;;;;;;;;;;5049986;28;20037;-61
2021/05/12 12:00:03;;;;;;;18.20;11.70;;;;;;;;;;5050669;28;20032;-63
2021/05/12 12:02:30;;;;;;;20.70;12.38;;;;;;;;;;5045469;28;20022;-64
2021/05/12 12:05:03;;;;;;;22.92;12.40;;;;;;;;;;5040958;28;20021;-63
2021/05/12 12:07:30;;;;;;;19.40;12.02;;;;;;;;;;5041557;28;20112;-63
2021/05/12 12:10:07;;;;;;;19.15;11.73;;;;;;;;;;5035135;28;20481;-62
2021/05/12 12:12:36;;;;;;;18.77;11.82;;;;;;;;;;5032140;28;20029;-63
2021/05/12 12:15:09;;;;;;;18.17;12.20;;;;;;;;;;5030449;28;20374;-62
2021/05/12 12:17:35;;;;;;;17.90;12.32;;;;;;;;;;5031250;28;20122;-63
2021/05/12 12:20:01;;;;;;;18.60;11.82;;;;;;;;;;4688847;28;10000019;-63
2021/05/12 12:22:27;;;;;;;21.70;13.80;;;;;;;;;;5048152;28;20036;-63
2021/05/12 12:24:54;;;;;;;18.75;12.02;;;;;;;;;;5046558;28;20025;-63
2021/05/12 12:27:20;;;;;;;18.38;12.85;;;;;;;;;;5047788;28;20103;-63
2021/05/12 12:29:49;;;;;;;16.75;12.10;;;;;;;;;;5046401;28;20031;-64
2021/05/12 12:32:15;;;;;;;18.98;12.88;;;;;;;;;;5038650;28;20029;-63
2021/05/12 12:34:44;;;;;;;19.20;13.55;;;;;;;;;;5041320;28;20112;-62
2021/05/12 12:37:16;;;;;;;20.25;14.00;;;;;;;;;;5036901;28;20021;-63
2021/05/12 12:39:53;;;;;;;19.65;13.55;;;;;;;;;;5040839;28;20020;-63
2021/05/12 12:42:32;;;;;;;22.30;14.52;;;;;;;;;;5031367;28;20021;-63
2021/05/12 12:45:03;;;;;;;17.83;13.48;;;;;;;;;;5036413;28;20108;-63
2021/05/12 12:47:29;;;;;;;19.58;13.57;;;;;;;;;;5040301;28;20017;-63
2021/05/12 12:50:04;;;;;;;20.05;12.90;;;;;;;;;;5041162;28;20106;-63
2021/05/12 12:52:38;;;;;;;18.73;13.23;;;;;;;;;;5040882;28;20451;-62
2021/05/12 12:55:07;;;;;;;19.50;12.38;;;;;;;;;;5041952;28;20021;-61
2021/05/12 12:57:47;;;;;;;20.85;12.85;;;;;;;;;;5040950;28;20029;-62
2021/05/12 13:00:14;;;;;;;21.33;13.60;;;;;;;;;;5031119;28;20032;-62
2021/05/12 13:02:40;;;;;;;23.88;13.48;;;;;;;;;;5040421;28;20033;-63
2021/05/12 13:05:19;;;;;;;20.10;12.98;;;;;;;;;;5051494;28;20025;-63
2021/05/12 13:07:46;;;;;;;17.48;12.63;;;;;;;;;;5050786;28;20041;-63
2021/05/12 13:10:26;;;;;;;18.90;13.00;;;;;;;;;;5049051;28;20070;-61
2021/05/12 13:12:52;;;;;;;19.83;13.88;;;;;;;;;;5051348;28;20036;-62
2021/05/12 13:15:22;;;;;;;20.85;15.00;;;;;;;;;;5051073;28;20029;-64
2021/05/12 13:17:51;;;;;;;24.63;14.00;;;;;;;;;;5064009;22;20045;-64
2021/05/12 13:20:18;;;;;;;18.05;12.40;;;;;;;;;;5029144;28;20029;-65
2021/05/12 13:22:44;;;;;;;20.40;12.18;;;;;;;;;;5030189;28;20045;-65
2021/05/12 13:25:10;;;;;;;21.02;11.73;;;;;;;;;;5012223;28;20021;-64
2021/05/12 13:27:36;;;;;;;21.73;12.15;;;;;;;;;;5029766;28;20482;-65
2021/05/12 13:30:03;;;;;;;17.55;10.18;;;;;;;;;;5029058;28;20109;-65
2021/05/12 13:32:29;;;;;;;20.85;11.43;;;;;;;;;;5027533;28;20030;-66
2021/05/12 13:34:55;;;;;;;23.58;10.57;;;;;;;;;;5029542;28;20091;-67
2021/05/12 13:37:22;;;;;;;18.55;10.77;;;;;;;;;;5024669;28;20172;-66
2021/05/12 13:39:50;;;;;;;25.27;12.02;;;;;;;;;;5017148;28;20022;-65
2021/05/12 13:42:19;;;;;;;19.02;11.02;;;;;;;;;;5016000;28;20037;-65
2021/05/12 13:44:44;;;;;;;18.08;10.60;;;;;;;;;;5018317;28;20425;-64
2021/05/12 13:47:10;;;;;;;19.40;11.07;;;;;;;;;;5019941;28;20017;-69
2021/05/12 13:49:36;;;;;;;22.08;12.02;;;;;;;;;;5017169;28;20029;-64
2021/05/12 13:52:06;;;;;;;20.13;12.25;;;;;;;;;;5019250;28;20027;-65
2021/05/12 13:54:38;;;;;;;22.38;13.25;;;;;;;;;;5026310;28;20052;-66
2021/05/12 13:57:14;;;;;;;20.77;12.70;;;;;;;;;;5032762;28;20049;-66
2021/05/12 14:02:57;;;;;;;19.75;12.73;;;;;;;;;;4990777;28;20030;-67
2021/05/12 14:05:26;;;;;;;23.88;14.73;;;;;;;;;;5017073;28;20040;-67
2021/05/12 14:07:52;;;;;;;19.38;12.57;;;;;;;;;;5021845;28;20025;-66
2021/05/12 14:10:19;;;;;;;21.40;13.82;;;;;;;;;;5021055;28;20021;-66
2021/05/12 14:12:48;;;;;;;18.52;13.48;;;;;;;;;;5012806;28;20141;-67
2021/05/12 14:15:32;;;;;;;18.50;13.55;;;;;;;;;;5012430;28;20073;-66
2021/05/12 14:17:58;;;;;;;20.25;12.70;;;;;;;;;;5020116;28;20057;-66
2021/05/12 14:20:24;;;;;;;19.15;12.88;;;;;;;;;;5023038;28;20095;-62
2021/05/12 14:22:50;;;;;;;18.02;12.48;;;;;;;;;;5022201;28;20018;-65
2021/05/12 14:25:16;;;;;;;19.25;12.68;;;;;;;;;;5021519;28;20022;-65
2021/05/12 14:27:45;;;;;;;16.77;12.15;;;;;;;;;;4668271;28;10000272;-65
2021/05/12 14:30:12;;;;;;;18.13;12.65;;;;;;;;;;5010437;28;20395;-65
2021/05/12 14:32:37;;;;;;;18.65;12.90;;;;;;;;;;5013303;28;20025;-65